sensor_id;sensor_type;location;lat;lon;timestamp;P1;durP1;ratioP1;P2;durP2;ratioP2
54360;SDS011;40258;53.936;27.540;2022-10-03T00:02:08;5.93;;;3.83;;
54360;SDS011;40258;53.936;27.540;2022-10-03T00:05:03;5.85;;;4.00;;
54360;SDS011;40258;53.936;27.540;2022-10-03T00:07:54;6.15;;;3.78;;
54360;SDS011;40258;53.936;27.540;2022-10-03T00:10:40;6.40;;;3.47;;
54360;SDS011;40258;53.936;27.540;2022-10-03T00:13:24;6.20;;;3.70;;
54360;SDS011;40258;53.936;27.540;2022-10-03T00:16:05;6.72;;;3.47;;
54360;SDS011;40258;53.936;27.540;2022-10-03T00:18:44;6.55;;;3.72;;
54360;SDS011;40258;53.936;27.540;2022-10-03T00:21:36;6.63;;;3.72;;
54360;SDS011;40258;53.936;27.540;2022-10-03T00:24:20;5.32;;;3.33;;
54360;SDS011;40258;53.936;27.540;2022-10-03T00:27:05;5.25;;;3.70;;
54360;SDS011;40258;53.936;27.540;2022-10-03T00:29:49;5.30;;;3.45;;
54360;SDS011;40258;53.936;27.540;2022-10-03T00:32:38;5.20;;;3.42;;
54360;SDS011;40258;53.936;27.540;2022-10-03T00:35:28;5.53;;;3.55;;
54360;SDS011;40258;53.936;27.540;2022-10-03T00:38:26;7.68;;;3.67;;
54360;SDS011;40258;53.936;27.540;2022-10-03T00:41:44;5.70;;;3.40;;
54360;SDS011;40258;53.936;27.540;2022-10-03T00:48:46;6.20;;;3.90;;
54360;SDS011;40258;53.936;27.540;2022-10-03T00:51:50;5.10;;;3.45;;
54360;SDS011;40258;53.936;27.540;2022-10-03T00:54:39;5.68;;;3.58;;
54360;SDS011;40258;53.936;27.540;2022-10-03T00:57:28;5.97;;;3.45;;
54360;SDS011;40258;53.936;27.540;2022-10-03T01:00:20;6.85;;;4.03;;
54360;SDS011;40258;53.936;27.540;2022-10-03T01:06:14;5.95;;;4.10;;
54360;SDS011;40258;53.936;27.540;2022-10-03T01:08:58;5.80;;;3.75;;
54360;SDS011;40258;53.936;27.540;2022-10-03T01:17:47;7.75;;;4.30;;
54360;SDS011;40258;53.936;27.540;2022-10-03T01:20:34;7.38;;;4.18;;
54360;SDS011;40258;53.936;27.540;2022-10-03T01:23:27;8.00;;;5.20;;
54360;SDS011;40258;53.936;27.540;2022-10-03T01:26:39;8.77;;;4.82;;
54360;SDS011;40258;53.936;27.540;2022-10-03T01:29:39;7.30;;;4.50;;
54360;SDS011;40258;53.936;27.540;2022-10-03T01:32:35;7.38;;;4.60;;
54360;SDS011;40258;53.936;27.540;2022-10-03T01:35:14;6.80;;;4.20;;
54360;SDS011;40258;53.936;27.540;2022-10-03T01:37:56;7.57;;;4.53;;
54360;SDS011;40258;53.936;27.540;2022-10-03T01:40:36;7.22;;;4.18;;
54360;SDS011;40258;53.936;27.540;2022-10-03T01:43:14;6.68;;;3.97;;
54360;SDS011;40258;53.936;27.540;2022-10-03T01:45:51;6.65;;;3.80;;
54360;SDS011;40258;53.936;27.540;2022-10-03T01:48:29;7.45;;;3.95;;
54360;SDS011;40258;53.936;27.540;2022-10-03T01:51:06;7.32;;;3.83;;
54360;SDS011;40258;53.936;27.540;2022-10-03T01:53:46;5.50;;;3.50;;
54360;SDS011;40258;53.936;27.540;2022-10-03T01:56:31;6.10;;;3.58;;
54360;SDS011;40258;53.936;27.540;2022-10-03T01:59:06;5.60;;;3.58;;
54360;SDS011;40258;53.936;27.540;2022-10-03T02:01:45;6.03;;;3.70;;
54360;SDS011;40258;53.936;27.540;2022-10-03T02:04:21;5.75;;;3.13;;
54360;SDS011;40258;53.936;27.540;2022-10-03T02:07:06;7.10;;;3.58;;
54360;SDS011;40258;53.936;27.540;2022-10-03T02:09:49;7.28;;;3.80;;
54360;SDS011;40258;53.936;27.540;2022-10-03T02:12:33;9.95;;;4.35;;
54360;SDS011;40258;53.936;27.540;2022-10-03T02:15:10;5.78;;;3.75;;
54360;SDS011;40258;53.936;27.540;2022-10-03T02:17:49;6.28;;;3.70;;
54360;SDS011;40258;53.936;27.540;2022-10-03T02:20:23;5.88;;;3.63;;
54360;SDS011;40258;53.936;27.540;2022-10-03T02:23:03;6.18;;;3.50;;
54360;SDS011;40258;53.936;27.540;2022-10-03T02:26:13;5.68;;;3.45;;
54360;SDS011;40258;53.936;27.540;2022-10-03T02:29:18;7.45;;;3.42;;
54360;SDS011;40258;53.936;27.540;2022-10-03T02:32:13;7.63;;;3.17;;
54360;SDS011;40258;53.936;27.540;2022-10-03T02:35:16;6.15;;;3.42;;
54360;SDS011;40258;53.936;27.540;2022-10-03T02:38:23;5.85;;;3.25;;
54360;SDS011;40258;53.936;27.540;2022-10-03T02:41:35;5.63;;;3.40;;
54360;SDS011;40258;53.936;27.540;2022-10-03T02:44:44;6.28;;;3.60;;
54360;SDS011;40258;53.936;27.540;2022-10-03T02:48:06;5.80;;;3.40;;
54360;SDS011;40258;53.936;27.540;2022-10-03T02:51:23;5.95;;;3.72;;
54360;SDS011;40258;53.936;27.540;2022-10-03T02:54:52;9.80;;;3.22;;
54360;SDS011;40258;53.936;27.540;2022-10-03T03:01:58;5.88;;;3.58;;
54360;SDS011;40258;53.936;27.540;2022-10-03T03:08:29;7.00;;;3.80;;
54360;SDS011;40258;53.936;27.540;2022-10-03T03:11:33;7.25;;;4.07;;
54360;SDS011;40258;53.936;27.540;2022-10-03T03:18:29;7.63;;;3.65;;
54360;SDS011;40258;53.936;27.540;2022-10-03T03:21:15;6.43;;;3.30;;
54360;SDS011;40258;53.936;27.540;2022-10-03T03:24:01;6.57;;;3.75;;
54360;SDS011;40258;53.936;27.540;2022-10-03T03:26:54;7.60;;;3.88;;
54360;SDS011;40258;53.936;27.540;2022-10-03T03:29:43;7.55;;;3.80;;
54360;SDS011;40258;53.936;27.540;2022-10-03T03:32:23;7.80;;;3.90;;
54360;SDS011;40258;53.936;27.540;2022-10-03T03:35:05;7.70;;;4.10;;
54360;SDS011;40258;53.936;27.540;2022-10-03T03:37:43;6.60;;;3.97;;
54360;SDS011;40258;53.936;27.540;2022-10-03T03:40:34;6.40;;;4.07;;
54360;SDS011;40258;53.936;27.540;2022-10-03T03:43:18;6.47;;;4.50;;
54360;SDS011;40258;53.936;27.540;2022-10-03T03:46:15;8.30;;;4.10;;
54360;SDS011;40258;53.936;27.540;2022-10-03T03:49:07;8.55;;;5.00;;
54360;SDS011;40258;53.936;27.540;2022-10-03T03:52:00;6.40;;;4.10;;
54360;SDS011;40258;53.936;27.540;2022-10-03T03:54:55;6.97;;;4.47;;
54360;SDS011;40258;53.936;27.540;2022-10-03T03:58:02;5.75;;;3.85;;
54360;SDS011;40258;53.936;27.540;2022-10-03T04:00:47;8.02;;;4.35;;
54360;SDS011;40258;53.936;27.540;2022-10-03T04:03:35;10.40;;;5.53;;
54360;SDS011;40258;53.936;27.540;2022-10-03T04:06:23;7.22;;;4.80;;
54360;SDS011;40258;53.936;27.540;2022-10-03T04:09:07;7.22;;;4.82;;
54360;SDS011;40258;53.936;27.540;2022-10-03T04:12:03;7.30;;;4.40;;
54360;SDS011;40258;53.936;27.540;2022-10-03T04:14:51;9.10;;;6.03;;
54360;SDS011;40258;53.936;27.540;2022-10-03T04:17:57;7.15;;;4.32;;
54360;SDS011;40258;53.936;27.540;2022-10-03T04:24:21;6.63;;;3.90;;
54360;SDS011;40258;53.936;27.540;2022-10-03T04:27:32;8.75;;;3.70;;
54360;SDS011;40258;53.936;27.540;2022-10-03T04:30:39;7.22;;;4.57;;
54360;SDS011;40258;53.936;27.540;2022-10-03T04:33:24;7.32;;;4.00;;
54360;SDS011;40258;53.936;27.540;2022-10-03T04:36:13;6.32;;;4.03;;
54360;SDS011;40258;53.936;27.540;2022-10-03T04:39:02;5.93;;;3.85;;
54360;SDS011;40258;53.936;27.540;2022-10-03T04:41:39;6.60;;;3.88;;
54360;SDS011;40258;53.936;27.540;2022-10-03T04:44:25;5.47;;;3.30;;
54360;SDS011;40258;53.936;27.540;2022-10-03T04:47:13;7.07;;;4.28;;
54360;SDS011;40258;53.936;27.540;2022-10-03T04:49:51;6.57;;;4.00;;
54360;SDS011;40258;53.936;27.540;2022-10-03T04:52:27;5.10;;;3.17;;
54360;SDS011;40258;53.936;27.540;2022-10-03T04:55:05;8.07;;;4.05;;
54360;SDS011;40258;53.936;27.540;2022-10-03T04:57:49;6.35;;;3.90;;
54360;SDS011;40258;53.936;27.540;2022-10-03T05:00:28;5.72;;;3.30;;
54360;SDS011;40258;53.936;27.540;2022-10-03T05:03:11;5.85;;;3.40;;
54360;SDS011;40258;53.936;27.540;2022-10-03T05:05:49;5.72;;;3.30;;
54360;SDS011;40258;53.936;27.540;2022-10-03T05:08:25;5.97;;;3.47;;
54360;SDS011;40258;53.936;27.540;2022-10-03T05:11:16;5.18;;;3.17;;
54360;SDS011;40258;53.936;27.540;2022-10-03T05:14:01;7.33;;;3.47;;
54360;SDS011;40258;53.936;27.540;2022-10-03T05:16:38;5.60;;;3.20;;
54360;SDS011;40258;53.936;27.540;2022-10-03T05:22:18;5.82;;;3.38;;
54360;SDS011;40258;53.936;27.540;2022-10-03T05:24:58;5.68;;;3.90;;
54360;SDS011;40258;53.936;27.540;2022-10-03T05:27:42;7.97;;;4.13;;
54360;SDS011;40258;53.936;27.540;2022-10-03T05:30:19;6.30;;;3.40;;
54360;SDS011;40258;53.936;27.540;2022-10-03T05:33:02;7.28;;;3.60;;
54360;SDS011;40258;53.936;27.540;2022-10-03T05:35:47;5.90;;;3.50;;
54360;SDS011;40258;53.936;27.540;2022-10-03T05:38:51;7.10;;;4.50;;
54360;SDS011;40258;53.936;27.540;2022-10-03T05:42:13;9.18;;;6.43;;
54360;SDS011;40258;53.936;27.540;2022-10-03T05:47:49;9.20;;;5.35;;
54360;SDS011;40258;53.936;27.540;2022-10-03T05:50:34;6.13;;;3.83;;
54360;SDS011;40258;53.936;27.540;2022-10-03T05:57:20;7.22;;;4.10;;
54360;SDS011;40258;53.936;27.540;2022-10-03T06:00:23;10.73;;;5.80;;
54360;SDS011;40258;53.936;27.540;2022-10-03T06:06:31;8.48;;;5.15;;
54360;SDS011;40258;53.936;27.540;2022-10-03T06:09:29;5.97;;;3.60;;
54360;SDS011;40258;53.936;27.540;2022-10-03T06:12:28;6.32;;;4.03;;
54360;SDS011;40258;53.936;27.540;2022-10-03T06:15:14;7.97;;;4.82;;
54360;SDS011;40258;53.936;27.540;2022-10-03T06:18:32;7.35;;;3.97;;
54360;SDS011;40258;53.936;27.540;2022-10-03T06:21:48;6.88;;;4.30;;
54360;SDS011;40258;53.936;27.540;2022-10-03T06:25:13;6.70;;;4.20;;
54360;SDS011;40258;53.936;27.540;2022-10-03T06:28:33;6.75;;;4.20;;
54360;SDS011;40258;53.936;27.540;2022-10-03T06:34:52;5.57;;;3.50;;
54360;SDS011;40258;53.936;27.540;2022-10-03T06:41:39;7.45;;;5.20;;
54360;SDS011;40258;53.936;27.540;2022-10-03T06:45:00;6.18;;;3.83;;
54360;SDS011;40258;53.936;27.540;2022-10-03T06:48:23;6.97;;;4.18;;
54360;SDS011;40258;53.936;27.540;2022-10-03T06:51:45;7.05;;;4.47;;
54360;SDS011;40258;53.936;27.540;2022-10-03T06:54:51;8.02;;;4.28;;
54360;SDS011;40258;53.936;27.540;2022-10-03T07:01:27;7.15;;;4.45;;
54360;SDS011;40258;53.936;27.540;2022-10-03T07:04:59;7.05;;;4.18;;
54360;SDS011;40258;53.936;27.540;2022-10-03T07:08:22;5.85;;;3.95;;
54360;SDS011;40258;53.936;27.540;2022-10-03T07:15:11;5.65;;;3.72;;
54360;SDS011;40258;53.936;27.540;2022-10-03T07:18:21;6.72;;;4.07;;
54360;SDS011;40258;53.936;27.540;2022-10-03T07:21:55;6.68;;;3.70;;
54360;SDS011;40258;53.936;27.540;2022-10-03T07:28:25;6.68;;;3.78;;
54360;SDS011;40258;53.936;27.540;2022-10-03T07:31:35;7.95;;;3.75;;
54360;SDS011;40258;53.936;27.540;2022-10-03T07:37:39;7.78;;;3.88;;
54360;SDS011;40258;53.936;27.540;2022-10-03T07:41:03;6.83;;;3.90;;
54360;SDS011;40258;53.936;27.540;2022-10-03T07:44:00;10.45;;;5.07;;
54360;SDS011;40258;53.936;27.540;2022-10-03T07:50:29;6.97;;;4.03;;
54360;SDS011;40258;53.936;27.540;2022-10-03T07:53:33;9.15;;;5.00;;
54360;SDS011;40258;53.936;27.540;2022-10-03T07:56:48;7.30;;;3.40;;
54360;SDS011;40258;53.936;27.540;2022-10-03T07:59:53;6.30;;;2.75;;
54360;SDS011;40258;53.936;27.540;2022-10-03T08:06:29;4.57;;;2.17;;
54360;SDS011;40258;53.936;27.540;2022-10-03T08:12:27;3.17;;;1.80;;
54360;SDS011;40258;53.936;27.540;2022-10-03T08:15:29;5.30;;;2.45;;
54360;SDS011;40258;53.936;27.540;2022-10-03T08:18:19;3.40;;;2.10;;
54360;SDS011;40258;53.936;27.540;2022-10-03T08:21:17;3.92;;;2.10;;
54360;SDS011;40258;53.936;27.540;2022-10-03T08:26:47;2.75;;;1.75;;
54360;SDS011;40258;53.936;27.540;2022-10-03T08:29:51;4.10;;;1.92;;
54360;SDS011;40258;53.936;27.540;2022-10-03T08:39:11;9.52;;;3.60;;
54360;SDS011;40258;53.936;27.540;2022-10-03T08:48:44;24.85;;;9.60;;
54360;SDS011;40258;53.936;27.540;2022-10-03T08:54:58;9.82;;;4.03;;
54360;SDS011;40258;53.936;27.540;2022-10-03T09:01:10;3.67;;;1.90;;
54360;SDS011;40258;53.936;27.540;2022-10-03T09:07:46;4.57;;;2.72;;
54360;SDS011;40258;53.936;27.540;2022-10-03T09:14:25;3.58;;;1.70;;
54360;SDS011;40258;53.936;27.540;2022-10-03T09:17:21;2.55;;;1.05;;
54360;SDS011;40258;53.936;27.540;2022-10-03T09:24:14;2.08;;;1.20;;
54360;SDS011;40258;53.936;27.540;2022-10-03T09:27:37;2.42;;;1.15;;
54360;SDS011;40258;53.936;27.540;2022-10-03T09:30:41;2.53;;;1.30;;
54360;SDS011;40258;53.936;27.540;2022-10-03T09:33:30;3.30;;;1.80;;
54360;SDS011;40258;53.936;27.540;2022-10-03T09:40:17;5.40;;;2.38;;
54360;SDS011;40258;53.936;27.540;2022-10-03T09:46:49;4.10;;;2.10;;
54360;SDS011;40258;53.936;27.540;2022-10-03T09:50:07;2.95;;;1.60;;
54360;SDS011;40258;53.936;27.540;2022-10-03T09:59:54;1.23;;;1.13;;
54360;SDS011;40258;53.936;27.540;2022-10-03T10:06:33;3.95;;;1.85;;
54360;SDS011;40258;53.936;27.540;2022-10-03T10:16:09;3.95;;;2.10;;
54360;SDS011;40258;53.936;27.540;2022-10-03T10:19:22;6.65;;;2.72;;
54360;SDS011;40258;53.936;27.540;2022-10-03T10:32:16;2.42;;;1.23;;
54360;SDS011;40258;53.936;27.540;2022-10-03T10:46:58;3.05;;;1.80;;
54360;SDS011;40258;53.936;27.540;2022-10-03T10:50:18;6.60;;;3.42;;
54360;SDS011;40258;53.936;27.540;2022-10-03T10:57:03;5.43;;;2.20;;
54360;SDS011;40258;53.936;27.540;2022-10-03T10:59:58;2.25;;;1.40;;
54360;SDS011;40258;53.936;27.540;2022-10-03T11:09:48;3.10;;;1.40;;
54360;SDS011;40258;53.936;27.540;2022-10-03T11:13:21;1.23;;;1.00;;
54360;SDS011;40258;53.936;27.540;2022-10-03T11:16:43;2.30;;;1.33;;
54360;SDS011;40258;53.936;27.540;2022-10-03T11:20:07;3.80;;;1.50;;
54360;SDS011;40258;53.936;27.540;2022-10-03T11:23:31;1.92;;;1.20;;
54360;SDS011;40258;53.936;27.540;2022-10-03T11:30:27;1.65;;;1.08;;
54360;SDS011;40258;53.936;27.540;2022-10-03T11:37:03;2.25;;;1.27;;
54360;SDS011;40258;53.936;27.540;2022-10-03T11:42:18;2.58;;;1.45;;
54360;SDS011;40258;53.936;27.540;2022-10-03T11:44:58;6.97;;;1.75;;
54360;SDS011;40258;53.936;27.540;2022-10-03T11:47:43;3.28;;;1.60;;
54360;SDS011;40258;53.936;27.540;2022-10-03T11:50:27;3.17;;;1.65;;
54360;SDS011;40258;53.936;27.540;2022-10-03T11:53:09;4.97;;;2.10;;
54360;SDS011;40258;53.936;27.540;2022-10-03T11:56:15;4.67;;;2.20;;
54360;SDS011;40258;53.936;27.540;2022-10-03T11:59:02;5.25;;;2.35;;
54360;SDS011;40258;53.936;27.540;2022-10-03T12:02:07;6.88;;;2.92;;
54360;SDS011;40258;53.936;27.540;2022-10-03T12:04:49;6.32;;;2.55;;
54360;SDS011;40258;53.936;27.540;2022-10-03T12:07:31;4.82;;;2.35;;
54360;SDS011;40258;53.936;27.540;2022-10-03T12:10:40;4.18;;;2.20;;
54360;SDS011;40258;53.936;27.540;2022-10-03T12:13:25;8.35;;;3.90;;
54360;SDS011;40258;53.936;27.540;2022-10-03T12:16:02;11.85;;;4.45;;
54360;SDS011;40258;53.936;27.540;2022-10-03T12:18:48;6.60;;;3.08;;
54360;SDS011;40258;53.936;27.540;2022-10-03T12:21:25;7.40;;;3.58;;
54360;SDS011;40258;53.936;27.540;2022-10-03T12:24:13;5.82;;;2.97;;
54360;SDS011;40258;53.936;27.540;2022-10-03T12:26:56;5.13;;;2.03;;
54360;SDS011;40258;53.936;27.540;2022-10-03T12:29:34;6.40;;;2.63;;
54360;SDS011;40258;53.936;27.540;2022-10-03T12:32:20;7.50;;;2.63;;
54360;SDS011;40258;53.936;27.540;2022-10-03T12:35:07;4.90;;;1.95;;
54360;SDS011;40258;53.936;27.540;2022-10-03T12:38:03;8.05;;;2.70;;
54360;SDS011;40258;53.936;27.540;2022-10-03T12:41:02;6.55;;;3.10;;
54360;SDS011;40258;53.936;27.540;2022-10-03T12:43:49;6.85;;;2.88;;
54360;SDS011;40258;53.936;27.540;2022-10-03T12:46:38;5.28;;;2.55;;
54360;SDS011;40258;53.936;27.540;2022-10-03T12:49:15;5.68;;;2.55;;
54360;SDS011;40258;53.936;27.540;2022-10-03T12:52:05;4.93;;;2.28;;
54360;SDS011;40258;53.936;27.540;2022-10-03T12:54:47;4.80;;;2.38;;
54360;SDS011;40258;53.936;27.540;2022-10-03T12:57:35;4.47;;;2.38;;
54360;SDS011;40258;53.936;27.540;2022-10-03T13:00:16;4.97;;;2.15;;
54360;SDS011;40258;53.936;27.540;2022-10-03T13:05:49;4.70;;;2.63;;
54360;SDS011;40258;53.936;27.540;2022-10-03T13:08:54;3.55;;;2.13;;
54360;SDS011;40258;53.936;27.540;2022-10-03T13:11:45;7.55;;;2.78;;
54360;SDS011;40258;53.936;27.540;2022-10-03T13:14:44;7.90;;;3.42;;
54360;SDS011;40258;53.936;27.540;2022-10-03T13:18:27;6.20;;;2.65;;
54360;SDS011;40258;53.936;27.540;2022-10-03T13:21:06;3.58;;;1.85;;
54360;SDS011;40258;53.936;27.540;2022-10-03T13:23:43;2.33;;;1.10;;
54360;SDS011;40258;53.936;27.540;2022-10-03T13:26:20;6.18;;;2.42;;
54360;SDS011;40258;53.936;27.540;2022-10-03T13:29:00;4.75;;;2.60;;
54360;SDS011;40258;53.936;27.540;2022-10-03T13:34:55;4.60;;;2.40;;
54360;SDS011;40258;53.936;27.540;2022-10-03T13:38:05;4.75;;;2.22;;
54360;SDS011;40258;53.936;27.540;2022-10-03T13:40:58;4.20;;;1.88;;
54360;SDS011;40258;53.936;27.540;2022-10-03T13:43:40;4.50;;;2.50;;
54360;SDS011;40258;53.936;27.540;2022-10-03T13:46:20;3.35;;;1.75;;
54360;SDS011;40258;53.936;27.540;2022-10-03T13:48:56;3.38;;;1.80;;
54360;SDS011;40258;53.936;27.540;2022-10-03T13:51:38;3.65;;;1.85;;
54360;SDS011;40258;53.936;27.540;2022-10-03T13:54:16;3.33;;;1.40;;
54360;SDS011;40258;53.936;27.540;2022-10-03T13:56:56;4.25;;;2.28;;
54360;SDS011;40258;53.936;27.540;2022-10-03T13:59:39;7.03;;;3.40;;
54360;SDS011;40258;53.936;27.540;2022-10-03T14:02:32;8.02;;;4.82;;
54360;SDS011;40258;53.936;27.540;2022-10-03T14:05:48;5.88;;;2.95;;
54360;SDS011;40258;53.936;27.540;2022-10-03T14:08:44;3.80;;;1.95;;
54360;SDS011;40258;53.936;27.540;2022-10-03T14:11:35;5.53;;;2.97;;
54360;SDS011;40258;53.936;27.540;2022-10-03T14:14:16;4.07;;;2.28;;
54360;SDS011;40258;53.936;27.540;2022-10-03T14:17:08;7.55;;;3.60;;
54360;SDS011;40258;53.936;27.540;2022-10-03T14:19:46;7.07;;;4.32;;
54360;SDS011;40258;53.936;27.540;2022-10-03T14:22:41;6.60;;;2.63;;
54360;SDS011;40258;53.936;27.540;2022-10-03T14:25:24;6.07;;;3.00;;
54360;SDS011;40258;53.936;27.540;2022-10-03T14:27:58;4.55;;;2.47;;
54360;SDS011;40258;53.936;27.540;2022-10-03T14:30:43;3.45;;;1.65;;
54360;SDS011;40258;53.936;27.540;2022-10-03T14:33:23;6.25;;;2.45;;
54360;SDS011;40258;53.936;27.540;2022-10-03T14:36:05;5.78;;;2.08;;
54360;SDS011;40258;53.936;27.540;2022-10-03T14:38:53;7.65;;;3.17;;
54360;SDS011;40258;53.936;27.540;2022-10-03T14:41:38;8.30;;;3.97;;
54360;SDS011;40258;53.936;27.540;2022-10-03T14:44:14;7.00;;;4.20;;
54360;SDS011;40258;53.936;27.540;2022-10-03T14:46:49;7.75;;;3.03;;
54360;SDS011;40258;53.936;27.540;2022-10-03T14:49:23;4.43;;;2.15;;
54360;SDS011;40258;53.936;27.540;2022-10-03T14:51:59;7.00;;;3.53;;
54360;SDS011;40258;53.936;27.540;2022-10-03T14:54:35;7.80;;;4.05;;
54360;SDS011;40258;53.936;27.540;2022-10-03T14:57:25;8.75;;;3.63;;
54360;SDS011;40258;53.936;27.540;2022-10-03T14:59:59;9.63;;;2.55;;
54360;SDS011;40258;53.936;27.540;2022-10-03T15:02:30;5.43;;;2.17;;
54360;SDS011;40258;53.936;27.540;2022-10-03T15:05:05;7.57;;;3.85;;
54360;SDS011;40258;53.936;27.540;2022-10-03T15:07:42;5.25;;;2.88;;
54360;SDS011;40258;53.936;27.540;2022-10-03T15:10:14;3.78;;;1.90;;
54360;SDS011;40258;53.936;27.540;2022-10-03T15:12:48;13.45;;;4.82;;
54360;SDS011;40258;53.936;27.540;2022-10-03T15:15:23;8.65;;;4.10;;
54360;SDS011;40258;53.936;27.540;2022-10-03T15:17:56;9.80;;;4.53;;
54360;SDS011;40258;53.936;27.540;2022-10-03T15:20:28;6.47;;;2.90;;
54360;SDS011;40258;53.936;27.540;2022-10-03T15:23:04;6.57;;;3.33;;
54360;SDS011;40258;53.936;27.540;2022-10-03T15:25:37;8.98;;;5.05;;
54360;SDS011;40258;53.936;27.540;2022-10-03T15:28:08;12.63;;;6.90;;
54360;SDS011;40258;53.936;27.540;2022-10-03T15:30:44;8.82;;;5.15;;
54360;SDS011;40258;53.936;27.540;2022-10-03T15:33:14;7.57;;;4.03;;
54360;SDS011;40258;53.936;27.540;2022-10-03T15:35:49;5.93;;;3.38;;
54360;SDS011;40258;53.936;27.540;2022-10-03T15:38:27;5.75;;;2.80;;
54360;SDS011;40258;53.936;27.540;2022-10-03T15:41:06;9.18;;;4.93;;
54360;SDS011;40258;53.936;27.540;2022-10-03T15:43:42;7.38;;;3.78;;
54360;SDS011;40258;53.936;27.540;2022-10-03T15:46:25;4.28;;;2.13;;
54360;SDS011;40258;53.936;27.540;2022-10-03T15:49:00;4.35;;;2.40;;
54360;SDS011;40258;53.936;27.540;2022-10-03T15:51:46;3.33;;;1.52;;
54360;SDS011;40258;53.936;27.540;2022-10-03T15:54:18;4.38;;;2.08;;
54360;SDS011;40258;53.936;27.540;2022-10-03T15:56:51;3.47;;;1.90;;
54360;SDS011;40258;53.936;27.540;2022-10-03T15:59:24;7.75;;;4.82;;
54360;SDS011;40258;53.936;27.540;2022-10-03T16:01:59;5.05;;;2.97;;
54360;SDS011;40258;53.936;27.540;2022-10-03T16:04:44;3.95;;;2.70;;
54360;SDS011;40258;53.936;27.540;2022-10-03T16:07:17;3.75;;;2.17;;
54360;SDS011;40258;53.936;27.540;2022-10-03T16:10:00;4.93;;;2.80;;
54360;SDS011;40258;53.936;27.540;2022-10-03T16:12:50;4.63;;;2.45;;
54360;SDS011;40258;53.936;27.540;2022-10-03T16:15:25;3.85;;;2.35;;
54360;SDS011;40258;53.936;27.540;2022-10-03T16:18:40;4.35;;;2.50;;
54360;SDS011;40258;53.936;27.540;2022-10-03T16:21:47;3.53;;;1.63;;
54360;SDS011;40258;53.936;27.540;2022-10-03T16:24:30;3.88;;;1.88;;
54360;SDS011;40258;53.936;27.540;2022-10-03T16:27:07;4.70;;;2.35;;
54360;SDS011;40258;53.936;27.540;2022-10-03T16:29:45;4.22;;;2.10;;
54360;SDS011;40258;53.936;27.540;2022-10-03T16:32:23;5.55;;;2.38;;
54360;SDS011;40258;53.936;27.540;2022-10-03T16:34:57;3.53;;;1.70;;
54360;SDS011;40258;53.936;27.540;2022-10-03T16:37:30;5.43;;;2.25;;
54360;SDS011;40258;53.936;27.540;2022-10-03T16:40:03;3.92;;;1.60;;
54360;SDS011;40258;53.936;27.540;2022-10-03T16:42:37;3.83;;;1.98;;
54360;SDS011;40258;53.936;27.540;2022-10-03T16:45:20;2.25;;;1.20;;
54360;SDS011;40258;53.936;27.540;2022-10-03T16:47:56;2.17;;;1.20;;
54360;SDS011;40258;53.936;27.540;2022-10-03T16:50:47;4.97;;;2.30;;
54360;SDS011;40258;53.936;27.540;2022-10-03T16:53:20;3.90;;;2.03;;
54360;SDS011;40258;53.936;27.540;2022-10-03T16:55:50;5.25;;;2.45;;
54360;SDS011;40258;53.936;27.540;2022-10-03T16:58:28;2.95;;;1.58;;
54360;SDS011;40258;53.936;27.540;2022-10-03T17:00:59;2.85;;;1.80;;
54360;SDS011;40258;53.936;27.540;2022-10-03T17:03:34;2.90;;;1.65;;
54360;SDS011;40258;53.936;27.540;2022-10-03T17:06:13;3.83;;;2.13;;
54360;SDS011;40258;53.936;27.540;2022-10-03T17:08:49;5.22;;;2.30;;
54360;SDS011;40258;53.936;27.540;2022-10-03T17:11:23;4.80;;;2.20;;
54360;SDS011;40258;53.936;27.540;2022-10-03T17:13:57;6.45;;;2.70;;
54360;SDS011;40258;53.936;27.540;2022-10-03T17:16:33;6.25;;;3.05;;
54360;SDS011;40258;53.936;27.540;2022-10-03T17:19:12;5.55;;;2.35;;
54360;SDS011;40258;53.936;27.540;2022-10-03T17:21:51;5.65;;;2.47;;
54360;SDS011;40258;53.936;27.540;2022-10-03T17:24:27;5.05;;;2.30;;
54360;SDS011;40258;53.936;27.540;2022-10-03T17:27:08;6.90;;;2.63;;
54360;SDS011;40258;53.936;27.540;2022-10-03T17:29:46;3.75;;;1.88;;
54360;SDS011;40258;53.936;27.540;2022-10-03T17:32:22;4.00;;;2.00;;
54360;SDS011;40258;53.936;27.540;2022-10-03T17:34:58;2.47;;;1.42;;
54360;SDS011;40258;53.936;27.540;2022-10-03T17:40:48;3.75;;;1.55;;
54360;SDS011;40258;53.936;27.540;2022-10-03T17:43:33;2.35;;;1.42;;
54360;SDS011;40258;53.936;27.540;2022-10-03T17:46:14;3.78;;;1.77;;
54360;SDS011;40258;53.936;27.540;2022-10-03T17:48:51;3.25;;;1.30;;
54360;SDS011;40258;53.936;27.540;2022-10-03T17:51:31;3.65;;;1.75;;
54360;SDS011;40258;53.936;27.540;2022-10-03T17:54:05;2.90;;;1.60;;
54360;SDS011;40258;53.936;27.540;2022-10-03T17:56:43;2.50;;;1.38;;
54360;SDS011;40258;53.936;27.540;2022-10-03T17:59:25;2.05;;;1.20;;
54360;SDS011;40258;53.936;27.540;2022-10-03T18:02:01;2.35;;;1.27;;
54360;SDS011;40258;53.936;27.540;2022-10-03T18:04:44;3.00;;;1.60;;
54360;SDS011;40258;53.936;27.540;2022-10-03T18:07:20;1.20;;;0.90;;
54360;SDS011;40258;53.936;27.540;2022-10-03T18:09:55;1.65;;;1.17;;
54360;SDS011;40258;53.936;27.540;2022-10-03T18:12:28;2.00;;;1.20;;
54360;SDS011;40258;53.936;27.540;2022-10-03T18:15:14;1.98;;;1.20;;
54360;SDS011;40258;53.936;27.540;2022-10-03T18:18:23;1.48;;;1.20;;
54360;SDS011;40258;53.936;27.540;2022-10-03T18:21:33;0.80;;;0.80;;
54360;SDS011;40258;53.936;27.540;2022-10-03T18:24:36;1.38;;;0.93;;
54360;SDS011;40258;53.936;27.540;2022-10-03T18:27:29;1.73;;;1.00;;
54360;SDS011;40258;53.936;27.540;2022-10-03T18:30:29;2.25;;;1.20;;
54360;SDS011;40258;53.936;27.540;2022-10-03T18:33:03;1.65;;;0.93;;
54360;SDS011;40258;53.936;27.540;2022-10-03T18:35:41;2.50;;;1.10;;
54360;SDS011;40258;53.936;27.540;2022-10-03T18:38:16;3.20;;;1.30;;
54360;SDS011;40258;53.936;27.540;2022-10-03T18:40:52;3.40;;;1.25;;
54360;SDS011;40258;53.936;27.540;2022-10-03T18:43:25;2.28;;;1.30;;
54360;SDS011;40258;53.936;27.540;2022-10-03T18:46:12;1.90;;;1.15;;
54360;SDS011;40258;53.936;27.540;2022-10-03T18:48:55;3.55;;;1.50;;
54360;SDS011;40258;53.936;27.540;2022-10-03T18:51:34;3.38;;;1.60;;
54360;SDS011;40258;53.936;27.540;2022-10-03T18:54:13;2.47;;;1.23;;
54360;SDS011;40258;53.936;27.540;2022-10-03T18:57:02;2.67;;;1.30;;
54360;SDS011;40258;53.936;27.540;2022-10-03T18:59:43;3.70;;;1.48;;
54360;SDS011;40258;53.936;27.540;2022-10-03T19:02:23;1.60;;;1.02;;
54360;SDS011;40258;53.936;27.540;2022-10-03T19:05:01;1.52;;;1.08;;
54360;SDS011;40258;53.936;27.540;2022-10-03T19:07:44;2.50;;;1.00;;
54360;SDS011;40258;53.936;27.540;2022-10-03T19:10:33;1.10;;;0.90;;
54360;SDS011;40258;53.936;27.540;2022-10-03T19:13:18;1.83;;;1.10;;
54360;SDS011;40258;53.936;27.540;2022-10-03T19:19:27;2.22;;;1.00;;
54360;SDS011;40258;53.936;27.540;2022-10-03T19:22:09;1.63;;;1.17;;
54360;SDS011;40258;53.936;27.540;2022-10-03T19:24:45;4.80;;;1.20;;
54360;SDS011;40258;53.936;27.540;2022-10-03T19:27:20;1.83;;;1.25;;
54360;SDS011;40258;53.936;27.540;2022-10-03T19:30:05;2.08;;;1.30;;
54360;SDS011;40258;53.936;27.540;2022-10-03T19:32:46;1.70;;;1.05;;
54360;SDS011;40258;53.936;27.540;2022-10-03T19:35:23;1.70;;;1.23;;
54360;SDS011;40258;53.936;27.540;2022-10-03T19:37:55;1.23;;;1.00;;
54360;SDS011;40258;53.936;27.540;2022-10-03T19:40:34;1.95;;;1.10;;
54360;SDS011;40258;53.936;27.540;2022-10-03T19:46:08;1.92;;;1.10;;
54360;SDS011;40258;53.936;27.540;2022-10-03T19:49:21;1.30;;;1.00;;
54360;SDS011;40258;53.936;27.540;2022-10-03T19:52:10;1.73;;;1.10;;